Terminal Aerodrome Forecast
Issued by NWS Goodland, KS

Home | Current Version | Previous Version | Text Only | Print | Product List | Glossary On
Versions: 1 2 3 4 5 6 7 8 9 10 11 12 13 14 15 16 17 18
671
FTUS43 KGLD 300520
TAFGLD
TAF
KGLD 300520Z 3006/3106 34012KT P6SM SKC
     FM300900 33011KT 6SM BR SCT005
     FM301100 33009KT 1SM BR OVC003
      TEMPO 3011/3015 1/2SM FG
     FM301800 36007KT P6SM SCT005 SCT035 BKN230
     FM302300 09004KT P6SM FEW040 SCT280
     FM310200 12008KT P6SM SCT250=

USA.gov is the U.S. government's official web portal to all federal, state and local government web resources and services.